sensor_id;sensor_type;location;lat;lon;timestamp;P1;durP1;ratioP1;P2;durP2;ratioP2
24325;SDS011;12448;45.532;5.290;2024-01-30T00:02:21;22.58;;;10.73;;
24325;SDS011;12448;45.532;5.290;2024-01-30T00:04:46;15.20;;;10.23;;
24325;SDS011;12448;45.532;5.290;2024-01-30T00:07:12;17.40;;;10.40;;
24325;SDS011;12448;45.532;5.290;2024-01-30T00:09:38;22.88;;;11.43;;
24325;SDS011;12448;45.532;5.290;2024-01-30T00:12:05;22.35;;;11.00;;
24325;SDS011;12448;45.532;5.290;2024-01-30T00:14:31;19.67;;;10.30;;
24325;SDS011;12448;45.532;5.290;2024-01-30T00:16:57;15.98;;;10.32;;
24325;SDS011;12448;45.532;5.290;2024-01-30T00:19:22;26.00;;;12.35;;
24325;SDS011;12448;45.532;5.290;2024-01-30T00:21:48;27.08;;;11.23;;
24325;SDS011;12448;45.532;5.290;2024-01-30T00:24:13;18.13;;;11.60;;
24325;SDS011;12448;45.532;5.290;2024-01-30T00:26:39;19.15;;;12.23;;
24325;SDS011;12448;45.532;5.290;2024-01-30T00:29:05;20.25;;;12.27;;
24325;SDS011;12448;45.532;5.290;2024-01-30T00:31:31;19.98;;;12.00;;
24325;SDS011;12448;45.532;5.290;2024-01-30T00:33:56;21.13;;;12.65;;
24325;SDS011;12448;45.532;5.290;2024-01-30T00:36:22;24.88;;;12.43;;
24325;SDS011;12448;45.532;5.290;2024-01-30T00:38:48;19.65;;;12.10;;
24325;SDS011;12448;45.532;5.290;2024-01-30T00:41:13;23.33;;;12.60;;
24325;SDS011;12448;45.532;5.290;2024-01-30T00:43:42;21.90;;;13.13;;
24325;SDS011;12448;45.532;5.290;2024-01-30T00:46:08;22.95;;;12.38;;
24325;SDS011;12448;45.532;5.290;2024-01-30T00:48:34;28.55;;;13.50;;
24325;SDS011;12448;45.532;5.290;2024-01-30T00:51:00;19.92;;;12.82;;
24325;SDS011;12448;45.532;5.290;2024-01-30T00:53:26;22.17;;;13.18;;
24325;SDS011;12448;45.532;5.290;2024-01-30T00:55:51;21.02;;;12.82;;
24325;SDS011;12448;45.532;5.290;2024-01-30T00:58:17;24.05;;;12.05;;
24325;SDS011;12448;45.532;5.290;2024-01-30T01:00:44;17.38;;;13.02;;
24325;SDS011;12448;45.532;5.290;2024-01-30T01:03:10;18.30;;;11.90;;
24325;SDS011;12448;45.532;5.290;2024-01-30T01:05:35;24.95;;;13.65;;
24325;SDS011;12448;45.532;5.290;2024-01-30T01:08:01;24.95;;;12.82;;
24325;SDS011;12448;45.532;5.290;2024-01-30T01:10:27;20.95;;;12.70;;
24325;SDS011;12448;45.532;5.290;2024-01-30T01:12:53;21.95;;;12.95;;
24325;SDS011;12448;45.532;5.290;2024-01-30T01:15:19;20.23;;;13.00;;
24325;SDS011;12448;45.532;5.290;2024-01-30T01:17:44;19.55;;;12.15;;
24325;SDS011;12448;45.532;5.290;2024-01-30T01:20:11;22.63;;;12.18;;
24325;SDS011;12448;45.532;5.290;2024-01-30T01:22:37;22.35;;;13.18;;
24325;SDS011;12448;45.532;5.290;2024-01-30T01:25:04;22.80;;;12.43;;
24325;SDS011;12448;45.532;5.290;2024-01-30T01:27:33;20.02;;;12.43;;
24325;SDS011;12448;45.532;5.290;2024-01-30T01:30:03;21.77;;;11.82;;
24325;SDS011;12448;45.532;5.290;2024-01-30T01:32:34;20.15;;;12.43;;
24325;SDS011;12448;45.532;5.290;2024-01-30T01:34:59;22.48;;;12.98;;
24325;SDS011;12448;45.532;5.290;2024-01-30T01:37:25;24.70;;;12.65;;
24325;SDS011;12448;45.532;5.290;2024-01-30T01:39:51;24.10;;;13.10;;
24325;SDS011;12448;45.532;5.290;2024-01-30T01:42:17;19.33;;;12.18;;
24325;SDS011;12448;45.532;5.290;2024-01-30T01:44:43;19.63;;;12.35;;
24325;SDS011;12448;45.532;5.290;2024-01-30T01:47:09;18.92;;;12.27;;
24325;SDS011;12448;45.532;5.290;2024-01-30T01:49:37;21.50;;;12.60;;
24325;SDS011;12448;45.532;5.290;2024-01-30T01:52:03;22.75;;;12.40;;
24325;SDS011;12448;45.532;5.290;2024-01-30T01:54:30;19.90;;;12.38;;
24325;SDS011;12448;45.532;5.290;2024-01-30T01:56:56;20.25;;;11.90;;
24325;SDS011;12448;45.532;5.290;2024-01-30T01:59:22;30.25;;;13.18;;
24325;SDS011;12448;45.532;5.290;2024-01-30T02:01:49;17.80;;;11.60;;
24325;SDS011;12448;45.532;5.290;2024-01-30T02:04:17;18.20;;;11.75;;
24325;SDS011;12448;45.532;5.290;2024-01-30T02:06:43;24.20;;;12.18;;
24325;SDS011;12448;45.532;5.290;2024-01-30T02:09:09;19.40;;;12.65;;
24325;SDS011;12448;45.532;5.290;2024-01-30T02:11:34;25.00;;;11.93;;
24325;SDS011;12448;45.532;5.290;2024-01-30T02:14:03;21.67;;;11.00;;
24325;SDS011;12448;45.532;5.290;2024-01-30T02:16:30;20.35;;;12.43;;
24325;SDS011;12448;45.532;5.290;2024-01-30T02:18:59;18.83;;;11.68;;
24325;SDS011;12448;45.532;5.290;2024-01-30T02:21:24;23.40;;;12.25;;
24325;SDS011;12448;45.532;5.290;2024-01-30T02:23:50;20.00;;;11.48;;
24325;SDS011;12448;45.532;5.290;2024-01-30T02:26:17;25.77;;;12.55;;
24325;SDS011;12448;45.532;5.290;2024-01-30T02:28:43;23.60;;;11.55;;
24325;SDS011;12448;45.532;5.290;2024-01-30T02:31:08;19.20;;;11.38;;
24325;SDS011;12448;45.532;5.290;2024-01-30T02:33:34;26.67;;;12.27;;
24325;SDS011;12448;45.532;5.290;2024-01-30T02:35:59;20.88;;;11.63;;
24325;SDS011;12448;45.532;5.290;2024-01-30T02:38:26;24.60;;;12.57;;
24325;SDS011;12448;45.532;5.290;2024-01-30T02:40:52;17.88;;;11.35;;
24325;SDS011;12448;45.532;5.290;2024-01-30T02:43:18;21.52;;;11.98;;
24325;SDS011;12448;45.532;5.290;2024-01-30T02:45:44;18.27;;;12.48;;
24325;SDS011;12448;45.532;5.290;2024-01-30T02:48:13;20.55;;;11.43;;
24325;SDS011;12448;45.532;5.290;2024-01-30T02:50:38;23.98;;;12.02;;
24325;SDS011;12448;45.532;5.290;2024-01-30T02:53:04;18.42;;;11.20;;
24325;SDS011;12448;45.532;5.290;2024-01-30T02:55:30;22.13;;;12.00;;
24325;SDS011;12448;45.532;5.290;2024-01-30T02:57:55;23.50;;;12.15;;
24325;SDS011;12448;45.532;5.290;2024-01-30T03:00:21;20.40;;;12.10;;
24325;SDS011;12448;45.532;5.290;2024-01-30T03:02:46;18.30;;;11.25;;
24325;SDS011;12448;45.532;5.290;2024-01-30T03:05:12;17.52;;;11.85;;
24325;SDS011;12448;45.532;5.290;2024-01-30T03:07:38;22.23;;;12.10;;
24325;SDS011;12448;45.532;5.290;2024-01-30T03:10:04;17.50;;;10.80;;
24325;SDS011;12448;45.532;5.290;2024-01-30T03:12:31;18.35;;;11.23;;
24325;SDS011;12448;45.532;5.290;2024-01-30T03:14:57;19.38;;;11.55;;
24325;SDS011;12448;45.532;5.290;2024-01-30T03:17:23;20.40;;;11.82;;
24325;SDS011;12448;45.532;5.290;2024-01-30T03:19:49;22.58;;;10.95;;
24325;SDS011;12448;45.532;5.290;2024-01-30T03:22:15;20.10;;;11.35;;
24325;SDS011;12448;45.532;5.290;2024-01-30T03:24:43;19.13;;;10.93;;
24325;SDS011;12448;45.532;5.290;2024-01-30T03:27:12;19.50;;;11.65;;
24325;SDS011;12448;45.532;5.290;2024-01-30T03:29:38;16.67;;;10.95;;
24325;SDS011;12448;45.532;5.290;2024-01-30T03:32:03;18.77;;;11.20;;
24325;SDS011;12448;45.532;5.290;2024-01-30T03:34:30;22.95;;;11.52;;
24325;SDS011;12448;45.532;5.290;2024-01-30T03:36:55;18.73;;;10.52;;
24325;SDS011;12448;45.532;5.290;2024-01-30T03:39:21;20.80;;;11.82;;
24325;SDS011;12448;45.532;5.290;2024-01-30T03:41:48;20.02;;;11.88;;
24325;SDS011;12448;45.532;5.290;2024-01-30T03:44:13;17.38;;;11.10;;
24325;SDS011;12448;45.532;5.290;2024-01-30T03:46:39;20.02;;;12.25;;
24325;SDS011;12448;45.532;5.290;2024-01-30T03:49:05;19.80;;;12.35;;
24325;SDS011;12448;45.532;5.290;2024-01-30T03:51:30;24.98;;;11.05;;
24325;SDS011;12448;45.532;5.290;2024-01-30T03:53:56;17.95;;;11.63;;
24325;SDS011;12448;45.532;5.290;2024-01-30T03:56:22;22.40;;;11.35;;
24325;SDS011;12448;45.532;5.290;2024-01-30T03:58:47;22.88;;;10.70;;
24325;SDS011;12448;45.532;5.290;2024-01-30T04:01:13;19.10;;;11.75;;
24325;SDS011;12448;45.532;5.290;2024-01-30T04:03:45;21.98;;;11.43;;
24325;SDS011;12448;45.532;5.290;2024-01-30T04:06:14;22.13;;;10.95;;
24325;SDS011;12448;45.532;5.290;2024-01-30T04:08:39;22.25;;;11.20;;
24325;SDS011;12448;45.532;5.290;2024-01-30T04:11:05;21.17;;;11.35;;
24325;SDS011;12448;45.532;5.290;2024-01-30T04:13:31;19.77;;;10.95;;
24325;SDS011;12448;45.532;5.290;2024-01-30T04:16:01;23.90;;;11.30;;
24325;SDS011;12448;45.532;5.290;2024-01-30T04:18:27;22.50;;;10.98;;
24325;SDS011;12448;45.532;5.290;2024-01-30T04:20:53;19.88;;;10.45;;
24325;SDS011;12448;45.532;5.290;2024-01-30T04:23:19;17.88;;;10.90;;
24325;SDS011;12448;45.532;5.290;2024-01-30T04:25:45;19.88;;;10.32;;
24325;SDS011;12448;45.532;5.290;2024-01-30T04:28:11;19.40;;;10.68;;
24325;SDS011;12448;45.532;5.290;2024-01-30T04:30:37;17.00;;;11.40;;
24325;SDS011;12448;45.532;5.290;2024-01-30T04:33:06;21.13;;;9.88;;
24325;SDS011;12448;45.532;5.290;2024-01-30T04:35:31;17.92;;;10.88;;
24325;SDS011;12448;45.532;5.290;2024-01-30T04:37:57;18.77;;;11.40;;
24325;SDS011;12448;45.532;5.290;2024-01-30T04:40:23;18.88;;;10.77;;
24325;SDS011;12448;45.532;5.290;2024-01-30T04:42:51;19.90;;;10.68;;
24325;SDS011;12448;45.532;5.290;2024-01-30T04:45:17;19.00;;;11.77;;
24325;SDS011;12448;45.532;5.290;2024-01-30T04:47:46;18.85;;;11.27;;
24325;SDS011;12448;45.532;5.290;2024-01-30T04:50:14;20.10;;;11.05;;
24325;SDS011;12448;45.532;5.290;2024-01-30T04:52:40;17.83;;;10.80;;
24325;SDS011;12448;45.532;5.290;2024-01-30T04:55:06;19.42;;;10.82;;
24325;SDS011;12448;45.532;5.290;2024-01-30T04:57:32;24.08;;;11.75;;
24325;SDS011;12448;45.532;5.290;2024-01-30T04:59:58;21.95;;;11.20;;
24325;SDS011;12448;45.532;5.290;2024-01-30T05:02:24;22.45;;;10.75;;
24325;SDS011;12448;45.532;5.290;2024-01-30T05:04:50;18.67;;;12.18;;
24325;SDS011;12448;45.532;5.290;2024-01-30T05:07:16;24.23;;;12.02;;
24325;SDS011;12448;45.532;5.290;2024-01-30T05:09:42;19.90;;;11.52;;
24325;SDS011;12448;45.532;5.290;2024-01-30T05:12:08;22.38;;;12.80;;
24325;SDS011;12448;45.532;5.290;2024-01-30T05:14:34;19.77;;;13.38;;
24325;SDS011;12448;45.532;5.290;2024-01-30T05:16:59;19.13;;;12.27;;
24325;SDS011;12448;45.532;5.290;2024-01-30T05:19:25;20.25;;;13.10;;
24325;SDS011;12448;45.532;5.290;2024-01-30T05:21:51;19.90;;;12.68;;
24325;SDS011;12448;45.532;5.290;2024-01-30T05:24:19;21.85;;;12.20;;
24325;SDS011;12448;45.532;5.290;2024-01-30T05:26:45;23.05;;;13.63;;
24325;SDS011;12448;45.532;5.290;2024-01-30T05:29:12;27.25;;;12.27;;
24325;SDS011;12448;45.532;5.290;2024-01-30T05:31:37;20.83;;;12.10;;
24325;SDS011;12448;45.532;5.290;2024-01-30T05:34:06;18.23;;;12.25;;
24325;SDS011;12448;45.532;5.290;2024-01-30T05:36:32;18.52;;;12.65;;
24325;SDS011;12448;45.532;5.290;2024-01-30T05:38:57;19.40;;;12.05;;
24325;SDS011;12448;45.532;5.290;2024-01-30T05:41:26;19.98;;;11.50;;
24325;SDS011;12448;45.532;5.290;2024-01-30T05:43:52;19.98;;;12.27;;
24325;SDS011;12448;45.532;5.290;2024-01-30T05:46:18;22.05;;;12.30;;
24325;SDS011;12448;45.532;5.290;2024-01-30T05:48:44;20.63;;;12.05;;
24325;SDS011;12448;45.532;5.290;2024-01-30T05:51:10;25.60;;;12.85;;
24325;SDS011;12448;45.532;5.290;2024-01-30T05:53:35;17.02;;;12.05;;
24325;SDS011;12448;45.532;5.290;2024-01-30T05:56:01;23.88;;;12.73;;
24325;SDS011;12448;45.532;5.290;2024-01-30T05:58:28;19.67;;;13.02;;
24325;SDS011;12448;45.532;5.290;2024-01-30T06:00:56;25.80;;;13.13;;
24325;SDS011;12448;45.532;5.290;2024-01-30T06:03:23;24.20;;;13.13;;
24325;SDS011;12448;45.532;5.290;2024-01-30T06:05:48;21.85;;;12.77;;
24325;SDS011;12448;45.532;5.290;2024-01-30T06:08:17;20.10;;;12.45;;
24325;SDS011;12448;45.532;5.290;2024-01-30T06:10:46;21.50;;;12.98;;
24325;SDS011;12448;45.532;5.290;2024-01-30T06:13:12;19.73;;;13.02;;
24325;SDS011;12448;45.532;5.290;2024-01-30T06:15:38;22.13;;;12.52;;
24325;SDS011;12448;45.532;5.290;2024-01-30T06:18:04;19.85;;;13.18;;
24325;SDS011;12448;45.532;5.290;2024-01-30T06:20:30;21.02;;;12.95;;
24325;SDS011;12448;45.532;5.290;2024-01-30T06:23:01;20.67;;;13.32;;
24325;SDS011;12448;45.532;5.290;2024-01-30T06:25:29;20.63;;;13.20;;
24325;SDS011;12448;45.532;5.290;2024-01-30T06:27:55;22.65;;;13.15;;
24325;SDS011;12448;45.532;5.290;2024-01-30T06:30:20;22.00;;;13.60;;
24325;SDS011;12448;45.532;5.290;2024-01-30T06:32:47;23.30;;;13.48;;
24325;SDS011;12448;45.532;5.290;2024-01-30T06:35:24;23.52;;;14.50;;
24325;SDS011;12448;45.532;5.290;2024-01-30T06:37:50;23.90;;;14.07;;
24325;SDS011;12448;45.532;5.290;2024-01-30T06:40:15;25.73;;;14.70;;
24325;SDS011;12448;45.532;5.290;2024-01-30T06:42:41;25.45;;;14.77;;
24325;SDS011;12448;45.532;5.290;2024-01-30T06:45:07;25.88;;;13.77;;
24325;SDS011;12448;45.532;5.290;2024-01-30T06:47:36;26.90;;;14.13;;
24325;SDS011;12448;45.532;5.290;2024-01-30T06:50:01;23.00;;;14.70;;
24325;SDS011;12448;45.532;5.290;2024-01-30T06:52:28;22.17;;;13.68;;
24325;SDS011;12448;45.532;5.290;2024-01-30T06:54:54;21.33;;;13.68;;
24325;SDS011;12448;45.532;5.290;2024-01-30T06:57:19;22.35;;;13.93;;
24325;SDS011;12448;45.532;5.290;2024-01-30T06:59:45;25.15;;;13.55;;
24325;SDS011;12448;45.532;5.290;2024-01-30T07:02:12;23.58;;;13.75;;
24325;SDS011;12448;45.532;5.290;2024-01-30T07:04:37;24.60;;;14.32;;
24325;SDS011;12448;45.532;5.290;2024-01-30T07:07:04;26.73;;;14.05;;
24325;SDS011;12448;45.532;5.290;2024-01-30T07:09:37;25.35;;;15.13;;
24325;SDS011;12448;45.532;5.290;2024-01-30T07:12:04;19.38;;;13.43;;
24325;SDS011;12448;45.532;5.290;2024-01-30T07:14:31;26.50;;;14.73;;
24325;SDS011;12448;45.532;5.290;2024-01-30T07:16:57;24.38;;;15.30;;
24325;SDS011;12448;45.532;5.290;2024-01-30T07:19:23;21.15;;;14.13;;
24325;SDS011;12448;45.532;5.290;2024-01-30T07:21:49;22.20;;;14.73;;
24325;SDS011;12448;45.532;5.290;2024-01-30T07:24:18;26.95;;;14.50;;
24325;SDS011;12448;45.532;5.290;2024-01-30T07:26:46;24.55;;;14.25;;
24325;SDS011;12448;45.532;5.290;2024-01-30T07:29:15;20.38;;;14.18;;
24325;SDS011;12448;45.532;5.290;2024-01-30T07:31:40;21.73;;;13.88;;
24325;SDS011;12448;45.532;5.290;2024-01-30T07:34:06;26.75;;;15.25;;
24325;SDS011;12448;45.532;5.290;2024-01-30T07:36:38;24.27;;;14.00;;
24325;SDS011;12448;45.532;5.290;2024-01-30T07:39:15;23.75;;;13.95;;
24325;SDS011;12448;45.532;5.290;2024-01-30T07:41:49;24.00;;;14.98;;
24325;SDS011;12448;45.532;5.290;2024-01-30T07:44:15;21.60;;;14.27;;
24325;SDS011;12448;45.532;5.290;2024-01-30T07:46:44;23.40;;;14.30;;
24325;SDS011;12448;45.532;5.290;2024-01-30T07:49:10;24.75;;;14.68;;
24325;SDS011;12448;45.532;5.290;2024-01-30T07:51:36;22.67;;;13.35;;
24325;SDS011;12448;45.532;5.290;2024-01-30T07:54:02;19.20;;;13.07;;
24325;SDS011;12448;45.532;5.290;2024-01-30T07:56:28;22.20;;;13.93;;
24325;SDS011;12448;45.532;5.290;2024-01-30T07:58:53;25.20;;;12.63;;
24325;SDS011;12448;45.532;5.290;2024-01-30T08:01:19;20.60;;;13.02;;
24325;SDS011;12448;45.532;5.290;2024-01-30T08:03:45;25.30;;;12.82;;
24325;SDS011;12448;45.532;5.290;2024-01-30T08:06:16;19.17;;;12.00;;
24325;SDS011;12448;45.532;5.290;2024-01-30T08:08:48;21.67;;;11.63;;
24325;SDS011;12448;45.532;5.290;2024-01-30T08:11:14;21.98;;;12.27;;
24325;SDS011;12448;45.532;5.290;2024-01-30T08:14:04;24.85;;;12.35;;
24325;SDS011;12448;45.532;5.290;2024-01-30T08:16:36;23.33;;;12.18;;
24325;SDS011;12448;45.532;5.290;2024-01-30T08:19:08;17.48;;;11.15;;
24325;SDS011;12448;45.532;5.290;2024-01-30T08:21:56;20.50;;;11.85;;
24325;SDS011;12448;45.532;5.290;2024-01-30T08:24:22;18.73;;;11.43;;
24325;SDS011;12448;45.532;5.290;2024-01-30T08:26:48;20.80;;;11.00;;
24325;SDS011;12448;45.532;5.290;2024-01-30T08:29:13;17.27;;;10.70;;
24325;SDS011;12448;45.532;5.290;2024-01-30T08:31:39;20.90;;;11.18;;
24325;SDS011;12448;45.532;5.290;2024-01-30T08:34:36;17.88;;;10.63;;
24325;SDS011;12448;45.532;5.290;2024-01-30T08:37:31;21.70;;;11.07;;
24325;SDS011;12448;45.532;5.290;2024-01-30T08:39:57;16.98;;;10.00;;
24325;SDS011;12448;45.532;5.290;2024-01-30T08:42:22;21.10;;;10.13;;
24325;SDS011;12448;45.532;5.290;2024-01-30T08:44:48;15.70;;;10.57;;
24325;SDS011;12448;45.532;5.290;2024-01-30T08:47:16;21.63;;;10.77;;
24325;SDS011;12448;45.532;5.290;2024-01-30T08:49:49;19.27;;;10.77;;
24325;SDS011;12448;45.532;5.290;2024-01-30T08:52:41;17.08;;;10.13;;
24325;SDS011;12448;45.532;5.290;2024-01-30T08:55:18;16.70;;;9.68;;
24325;SDS011;12448;45.532;5.290;2024-01-30T08:57:49;17.00;;;9.75;;
24325;SDS011;12448;45.532;5.290;2024-01-30T09:00:21;15.55;;;9.70;;
24325;SDS011;12448;45.532;5.290;2024-01-30T09:03:30;19.58;;;9.88;;
24325;SDS011;12448;45.532;5.290;2024-01-30T09:06:25;19.25;;;9.73;;
24325;SDS011;12448;45.532;5.290;2024-01-30T09:12:50;15.95;;;8.90;;
24325;SDS011;12448;45.532;5.290;2024-01-30T09:15:35;16.15;;;8.82;;
24325;SDS011;12448;45.532;5.290;2024-01-30T09:18:09;23.02;;;9.65;;
24325;SDS011;12448;45.532;5.290;2024-01-30T09:24:20;17.30;;;8.77;;
24325;SDS011;12448;45.532;5.290;2024-01-30T09:26:51;14.57;;;8.85;;
24325;SDS011;12448;45.532;5.290;2024-01-30T09:30:07;13.45;;;7.90;;
24325;SDS011;12448;45.532;5.290;2024-01-30T09:32:39;12.75;;;7.70;;
24325;SDS011;12448;45.532;5.290;2024-01-30T09:35:49;12.63;;;7.38;;
24325;SDS011;12448;45.532;5.290;2024-01-30T09:38:56;16.38;;;6.95;;
24325;SDS011;12448;45.532;5.290;2024-01-30T09:41:45;9.15;;;6.43;;
24325;SDS011;12448;45.532;5.290;2024-01-30T09:44:17;13.63;;;7.00;;
24325;SDS011;12448;45.532;5.290;2024-01-30T09:46:58;13.85;;;6.68;;
24325;SDS011;12448;45.532;5.290;2024-01-30T09:52:44;10.90;;;6.85;;
24325;SDS011;12448;45.532;5.290;2024-01-30T09:55:31;9.27;;;6.38;;
24325;SDS011;12448;45.532;5.290;2024-01-30T09:58:00;10.15;;;6.13;;
24325;SDS011;12448;45.532;5.290;2024-01-30T10:01:14;10.45;;;6.43;;
24325;SDS011;12448;45.532;5.290;2024-01-30T10:03:50;9.93;;;6.00;;
24325;SDS011;12448;45.532;5.290;2024-01-30T10:06:19;8.65;;;6.07;;
24325;SDS011;12448;45.532;5.290;2024-01-30T10:08:48;10.38;;;6.43;;
24325;SDS011;12448;45.532;5.290;2024-01-30T10:11:16;13.55;;;6.38;;
24325;SDS011;12448;45.532;5.290;2024-01-30T10:13:42;15.13;;;6.53;;
24325;SDS011;12448;45.532;5.290;2024-01-30T10:16:14;13.02;;;6.57;;
24325;SDS011;12448;45.532;5.290;2024-01-30T10:18:41;13.02;;;6.53;;
24325;SDS011;12448;45.532;5.290;2024-01-30T10:21:10;9.70;;;6.30;;
24325;SDS011;12448;45.532;5.290;2024-01-30T10:23:36;9.10;;;5.57;;
24325;SDS011;12448;45.532;5.290;2024-01-30T10:26:08;11.43;;;6.20;;
24325;SDS011;12448;45.532;5.290;2024-01-30T10:28:33;13.15;;;5.97;;
24325;SDS011;12448;45.532;5.290;2024-01-30T10:30:59;10.82;;;5.45;;
24325;SDS011;12448;45.532;5.290;2024-01-30T10:33:26;9.77;;;5.15;;
24325;SDS011;12448;45.532;5.290;2024-01-30T10:35:54;10.18;;;5.22;;
24325;SDS011;12448;45.532;5.290;2024-01-30T10:38:27;8.10;;;5.18;;
24325;SDS011;12448;45.532;5.290;2024-01-30T10:40:57;9.07;;;5.93;;
24325;SDS011;12448;45.532;5.290;2024-01-30T10:43:31;9.98;;;5.80;;
24325;SDS011;12448;45.532;5.290;2024-01-30T10:49:07;10.63;;;5.60;;
24325;SDS011;12448;45.532;5.290;2024-01-30T10:51:38;10.43;;;5.40;;
24325;SDS011;12448;45.532;5.290;2024-01-30T10:54:22;9.07;;;4.97;;
24325;SDS011;12448;45.532;5.290;2024-01-30T10:56:59;13.20;;;5.93;;
24325;SDS011;12448;45.532;5.290;2024-01-30T10:59:29;8.07;;;5.20;;
24325;SDS011;12448;45.532;5.290;2024-01-30T11:02:16;11.02;;;5.47;;
24325;SDS011;12448;45.532;5.290;2024-01-30T11:04:42;8.23;;;5.68;;
24325;SDS011;12448;45.532;5.290;2024-01-30T11:07:16;9.80;;;5.07;;
24325;SDS011;12448;45.532;5.290;2024-01-30T11:10:02;11.40;;;5.22;;
24325;SDS011;12448;45.532;5.290;2024-01-30T11:12:47;10.48;;;5.40;;
24325;SDS011;12448;45.532;5.290;2024-01-30T11:15:19;11.70;;;5.50;;
24325;SDS011;12448;45.532;5.290;2024-01-30T11:17:52;9.45;;;5.07;;
24325;SDS011;12448;45.532;5.290;2024-01-30T11:20:21;11.85;;;5.20;;
24325;SDS011;12448;45.532;5.290;2024-01-30T11:22:55;12.55;;;5.28;;
24325;SDS011;12448;45.532;5.290;2024-01-30T11:25:22;10.77;;;5.90;;
24325;SDS011;12448;45.532;5.290;2024-01-30T11:27:49;11.07;;;5.72;;
24325;SDS011;12448;45.532;5.290;2024-01-30T11:30:22;8.90;;;5.30;;
24325;SDS011;12448;45.532;5.290;2024-01-30T11:35:51;13.32;;;5.45;;
24325;SDS011;12448;45.532;5.290;2024-01-30T11:38:19;10.38;;;5.10;;
24325;SDS011;12448;45.532;5.290;2024-01-30T11:40:44;8.15;;;5.13;;
24325;SDS011;12448;45.532;5.290;2024-01-30T11:43:10;8.75;;;4.88;;
24325;SDS011;12448;45.532;5.290;2024-01-30T11:45:37;12.48;;;5.18;;
24325;SDS011;12448;45.532;5.290;2024-01-30T11:48:03;9.10;;;4.22;;
24325;SDS011;12448;45.532;5.290;2024-01-30T11:50:33;8.50;;;4.30;;
24325;SDS011;12448;45.532;5.290;2024-01-30T11:52:59;6.80;;;3.63;;
24325;SDS011;12448;45.532;5.290;2024-01-30T11:55:25;6.68;;;3.83;;
24325;SDS011;12448;45.532;5.290;2024-01-30T11:57:54;6.45;;;3.83;;
24325;SDS011;12448;45.532;5.290;2024-01-30T12:00:21;8.90;;;3.85;;
24325;SDS011;12448;45.532;5.290;2024-01-30T12:03:04;9.65;;;4.30;;
24325;SDS011;12448;45.532;5.290;2024-01-30T12:05:57;7.55;;;4.07;;
24325;SDS011;12448;45.532;5.290;2024-01-30T12:08:23;10.00;;;3.72;;
24325;SDS011;12448;45.532;5.290;2024-01-30T12:10:58;6.18;;;3.47;;
24325;SDS011;12448;45.532;5.290;2024-01-30T12:13:33;6.30;;;3.25;;
24325;SDS011;12448;45.532;5.290;2024-01-30T12:16:25;5.72;;;3.50;;
24325;SDS011;12448;45.532;5.290;2024-01-30T12:19:00;9.20;;;3.70;;
24325;SDS011;12448;45.532;5.290;2024-01-30T12:21:35;6.05;;;3.60;;
24325;SDS011;12448;45.532;5.290;2024-01-30T12:24:01;6.10;;;3.15;;
24325;SDS011;12448;45.532;5.290;2024-01-30T12:26:26;9.32;;;3.58;;
24325;SDS011;12448;45.532;5.290;2024-01-30T12:28:56;9.50;;;3.55;;
24325;SDS011;12448;45.532;5.290;2024-01-30T12:31:31;6.80;;;3.40;;
24325;SDS011;12448;45.532;5.290;2024-01-30T12:34:08;5.97;;;3.53;;
24325;SDS011;12448;45.532;5.290;2024-01-30T12:36:43;6.70;;;3.03;;
24325;SDS011;12448;45.532;5.290;2024-01-30T12:39:18;6.50;;;3.10;;
24325;SDS011;12448;45.532;5.290;2024-01-30T12:41:56;5.55;;;3.15;;
24325;SDS011;12448;45.532;5.290;2024-01-30T12:44:30;6.85;;;3.60;;
24325;SDS011;12448;45.532;5.290;2024-01-30T12:47:02;9.30;;;3.67;;
24325;SDS011;12448;45.532;5.290;2024-01-30T12:49:34;7.20;;;3.58;;
24325;SDS011;12448;45.532;5.290;2024-01-30T12:51:59;6.85;;;3.63;;
24325;SDS011;12448;45.532;5.290;2024-01-30T12:54:25;4.68;;;3.17;;
24325;SDS011;12448;45.532;5.290;2024-01-30T12:56:51;7.20;;;3.47;;
24325;SDS011;12448;45.532;5.290;2024-01-30T12:59:16;8.27;;;3.63;;
24325;SDS011;12448;45.532;5.290;2024-01-30T13:01:42;7.18;;;3.47;;
24325;SDS011;12448;45.532;5.290;2024-01-30T13:04:08;7.90;;;3.20;;
24325;SDS011;12448;45.532;5.290;2024-01-30T13:06:33;7.45;;;3.42;;
24325;SDS011;12448;45.532;5.290;2024-01-30T13:08:59;4.20;;;2.78;;
24325;SDS011;12448;45.532;5.290;2024-01-30T13:11:25;5.50;;;3.25;;
24325;SDS011;12448;45.532;5.290;2024-01-30T13:14:01;6.95;;;2.95;;
24325;SDS011;12448;45.532;5.290;2024-01-30T13:16:33;9.90;;;4.10;;
24325;SDS011;12448;45.532;5.290;2024-01-30T13:19:02;17.25;;;6.68;;
24325;SDS011;12448;45.532;5.290;2024-01-30T13:21:28;11.98;;;6.25;;
24325;SDS011;12448;45.532;5.290;2024-01-30T13:23:54;5.38;;;3.25;;
24325;SDS011;12448;45.532;5.290;2024-01-30T13:26:23;6.40;;;2.55;;
24325;SDS011;12448;45.532;5.290;2024-01-30T13:28:49;4.55;;;2.55;;
24325;SDS011;12448;45.532;5.290;2024-01-30T13:31:15;7.10;;;2.42;;
24325;SDS011;12448;45.532;5.290;2024-01-30T13:33:41;5.80;;;2.70;;
24325;SDS011;12448;45.532;5.290;2024-01-30T13:36:07;4.25;;;2.40;;
24325;SDS011;12448;45.532;5.290;2024-01-30T13:38:35;5.60;;;2.20;;
24325;SDS011;12448;45.532;5.290;2024-01-30T13:41:01;4.93;;;2.80;;
24325;SDS011;12448;45.532;5.290;2024-01-30T13:43:27;7.18;;;2.40;;
24325;SDS011;12448;45.532;5.290;2024-01-30T13:45:53;7.03;;;2.55;;
24325;SDS011;12448;45.532;5.290;2024-01-30T13:48:19;6.18;;;2.40;;
24325;SDS011;12448;45.532;5.290;2024-01-30T13:50:51;5.35;;;2.17;;
24325;SDS011;12448;45.532;5.290;2024-01-30T13:53:18;7.05;;;2.13;;
24325;SDS011;12448;45.532;5.290;2024-01-30T13:55:43;6.53;;;2.45;;
24325;SDS011;12448;45.532;5.290;2024-01-30T13:58:09;3.90;;;2.10;;
24325;SDS011;12448;45.532;5.290;2024-01-30T14:00:35;5.45;;;2.83;;
24325;SDS011;12448;45.532;5.290;2024-01-30T14:03:01;5.32;;;2.50;;
24325;SDS011;12448;45.532;5.290;2024-01-30T14:05:26;4.68;;;2.67;;
24325;SDS011;12448;45.532;5.290;2024-01-30T14:07:53;3.40;;;2.22;;
24325;SDS011;12448;45.532;5.290;2024-01-30T14:10:19;5.53;;;2.50;;
24325;SDS011;12448;45.532;5.290;2024-01-30T14:12:45;4.25;;;2.10;;
24325;SDS011;12448;45.532;5.290;2024-01-30T14:15:13;4.30;;;1.92;;
24325;SDS011;12448;45.532;5.290;2024-01-30T14:17:40;5.78;;;2.20;;
24325;SDS011;12448;45.532;5.290;2024-01-30T14:20:06;4.20;;;2.30;;
24325;SDS011;12448;45.532;5.290;2024-01-30T14:22:54;4.20;;;2.30;;
24325;SDS011;12448;45.532;5.290;2024-01-30T14:25:28;5.22;;;2.25;;
24325;SDS011;12448;45.532;5.290;2024-01-30T14:27:53;4.03;;;2.40;;
24325;SDS011;12448;45.532;5.290;2024-01-30T14:30:19;9.68;;;2.65;;
24325;SDS011;12448;45.532;5.290;2024-01-30T14:32:45;4.47;;;2.63;;
24325;SDS011;12448;45.532;5.290;2024-01-30T14:35:14;4.82;;;2.83;;
24325;SDS011;12448;45.532;5.290;2024-01-30T14:37:40;6.85;;;2.38;;
24325;SDS011;12448;45.532;5.290;2024-01-30T14:40:07;5.80;;;2.28;;
24325;SDS011;12448;45.532;5.290;2024-01-30T14:42:33;4.85;;;2.63;;
24325;SDS011;12448;45.532;5.290;2024-01-30T14:44:59;7.30;;;2.42;;
24325;SDS011;12448;45.532;5.290;2024-01-30T14:47:25;5.30;;;2.28;;
24325;SDS011;12448;45.532;5.290;2024-01-30T14:50:41;5.45;;;2.25;;
24325;SDS011;12448;45.532;5.290;2024-01-30T14:53:06;3.80;;;2.17;;
24325;SDS011;12448;45.532;5.290;2024-01-30T14:55:32;6.82;;;3.13;;
24325;SDS011;12448;45.532;5.290;2024-01-30T14:57:58;4.72;;;2.50;;
24325;SDS011;12448;45.532;5.290;2024-01-30T15:00:27;5.30;;;2.80;;